createdAt,value
2023-05-22T00:00:37.420Z,99.90
2023-05-22T00:03:24.730Z,99.90
2023-05-22T00:05:53.596Z,99.90
2023-05-22T00:08:22.586Z,99.90
2023-05-22T00:10:51.155Z,99.90
2023-05-22T00:13:20.848Z,99.90
2023-05-22T00:15:49.871Z,99.90
2023-05-22T00:18:19.571Z,99.90
2023-05-22T00:20:48.566Z,99.90
2023-05-22T00:23:17.492Z,99.90
2023-05-22T00:25:46.164Z,99.90
2023-05-22T00:28:15.112Z,99.90
2023-05-22T00:30:43.836Z,99.90
2023-05-22T00:33:13.199Z,99.90
2023-05-22T00:35:41.875Z,99.90
2023-05-22T00:38:14.232Z,99.90
2023-05-22T00:40:43.027Z,99.90
2023-05-22T00:43:12.439Z,99.90
2023-05-22T00:45:41.165Z,99.90
2023-05-22T00:48:12.618Z,99.90
2023-05-22T00:50:41.854Z,99.90
2023-05-22T00:53:11.038Z,99.90
2023-05-22T00:55:39.608Z,99.90
2023-05-22T00:58:08.961Z,99.90
2023-05-22T01:00:37.890Z,99.90
2023-05-22T01:03:08.221Z,99.90
2023-05-22T01:05:37.705Z,99.90
2023-05-22T01:08:08.009Z,99.90
2023-05-22T01:10:38.179Z,99.90
2023-05-22T01:13:30.180Z,99.90
2023-05-22T01:16:47.000Z,99.90
2023-05-22T01:19:50.895Z,99.90
2023-05-22T01:22:58.794Z,99.90
2023-05-22T01:25:59.896Z,99.90
2023-05-22T01:29:00.208Z,99.90
2023-05-22T01:31:30.698Z,99.90
2023-05-22T01:34:01.486Z,99.90
2023-05-22T01:36:32.907Z,99.90
2023-05-22T01:39:01.834Z,99.90
2023-05-22T01:41:30.929Z,99.90
2023-05-22T01:44:00.574Z,99.90
2023-05-22T01:46:31.842Z,99.90
2023-05-22T01:49:00.830Z,99.90
2023-05-22T01:51:53.150Z,99.90
2023-05-22T01:54:42.577Z,99.90
2023-05-22T01:57:36.188Z,99.90
2023-05-22T02:00:11.879Z,99.90
2023-05-22T02:02:52.234Z,99.90
2023-05-22T02:05:21.420Z,99.90
2023-05-22T02:07:50.590Z,99.90
2023-05-22T02:10:19.901Z,99.90
2023-05-22T02:12:48.979Z,99.90
2023-05-22T02:15:18.537Z,99.90
2023-05-22T02:17:49.997Z,99.90
2023-05-22T02:20:18.996Z,99.90
2023-05-22T02:22:48.510Z,99.90
2023-05-22T02:25:17.866Z,99.90
2023-05-22T02:27:49.801Z,99.90
2023-05-22T02:30:18.601Z,99.90
2023-05-22T02:32:51.401Z,99.90
2023-05-22T02:35:20.292Z,99.90
2023-05-22T02:37:49.303Z,99.90
2023-05-22T02:40:18.477Z,99.90
2023-05-22T02:42:47.500Z,99.90
2023-05-22T02:45:17.422Z,99.90
2023-05-22T02:47:46.535Z,99.90
2023-05-22T02:50:15.222Z,99.90
2023-05-22T02:52:45.643Z,99.90
2023-05-22T02:55:14.367Z,99.90
2023-05-22T02:57:43.481Z,99.90
2023-05-22T03:00:12.873Z,99.90
2023-05-22T03:02:42.886Z,99.90
2023-05-22T03:05:11.770Z,99.90
2023-05-22T03:07:41.365Z,99.90
2023-05-22T03:10:10.347Z,99.90
2023-05-22T03:12:39.441Z,99.90
2023-05-22T03:15:09.139Z,99.90
2023-05-22T03:17:39.373Z,99.90
2023-05-22T03:20:09.086Z,99.90
2023-05-22T03:22:38.162Z,99.90
2023-05-22T03:27:40.248Z,99.90
2023-05-22T03:30:09.876Z,99.90
2023-05-22T03:32:41.228Z,99.90
2023-05-22T03:35:10.123Z,99.90
2023-05-22T03:37:39.184Z,99.90
2023-05-22T03:40:10.762Z,99.90
2023-05-22T03:42:39.573Z,99.90
2023-05-22T03:45:09.164Z,99.90
2023-05-22T03:47:39.295Z,99.90
2023-05-22T03:50:08.234Z,99.90
2023-05-22T03:52:37.005Z,99.90
2023-05-22T03:55:07.510Z,99.90
2023-05-22T03:57:36.278Z,99.90
2023-05-22T04:00:10.050Z,99.90
2023-05-22T04:02:45.508Z,99.90
2023-05-22T04:05:14.950Z,99.90
2023-05-22T04:07:45.435Z,99.90
2023-05-22T04:10:13.883Z,99.90
2023-05-22T04:12:42.609Z,99.90
2023-05-22T04:15:11.000Z,99.90
2023-05-22T04:17:41.357Z,99.90
2023-05-22T04:20:11.474Z,99.90
2023-05-22T04:22:41.457Z,99.90
2023-05-22T04:25:11.348Z,99.90
2023-05-22T04:27:40.360Z,99.90
2023-05-22T04:30:10.770Z,99.90
2023-05-22T04:32:41.450Z,99.90
2023-05-22T04:35:12.522Z,99.90
2023-05-22T04:37:42.508Z,99.90
2023-05-22T04:40:11.593Z,99.90
2023-05-22T04:42:40.631Z,99.90
2023-05-22T04:45:10.168Z,99.90
2023-05-22T04:47:41.841Z,99.90
2023-05-22T04:50:10.999Z,99.90
2023-05-22T04:52:39.783Z,99.90
2023-05-22T04:55:12.413Z,99.90
2023-05-22T04:57:41.724Z,99.90
2023-05-22T05:00:11.076Z,99.90
2023-05-22T05:02:41.478Z,99.90
2023-05-22T05:05:10.249Z,99.90
2023-05-22T05:07:40.308Z,99.90
2023-05-22T05:10:10.211Z,99.90
2023-05-22T05:12:39.248Z,99.90
2023-05-22T05:15:10.472Z,99.90
2023-05-22T05:17:39.591Z,99.90
2023-05-22T05:20:10.718Z,99.90
2023-05-22T05:22:40.410Z,99.90
2023-05-22T05:25:10.952Z,99.90
2023-05-22T05:27:41.246Z,99.90
2023-05-22T05:30:11.310Z,99.90
2023-05-22T05:33:15.677Z,99.90
2023-05-22T05:36:02.804Z,99.90
2023-05-22T05:38:32.766Z,99.90
2023-05-22T05:41:01.117Z,99.90
2023-05-22T05:43:29.901Z,99.90
2023-05-22T05:46:04.281Z,99.90
2023-05-22T05:48:33.136Z,99.90
2023-05-22T05:51:01.720Z,99.90
2023-05-22T05:53:37.416Z,99.90
2023-05-22T05:56:08.283Z,99.90
2023-05-22T05:58:38.575Z,99.90
2023-05-22T06:01:42.002Z,99.90
2023-05-22T06:04:16.902Z,99.90
2023-05-22T06:06:48.010Z,99.90
2023-05-22T06:09:17.192Z,99.90
2023-05-22T06:12:06.548Z,99.90
2023-05-22T06:14:35.556Z,99.90
2023-05-22T06:17:05.064Z,99.90
2023-05-22T06:19:34.046Z,99.90
2023-05-22T06:22:02.791Z,99.90
2023-05-22T06:24:32.802Z,99.90
2023-05-22T06:27:06.844Z,99.90
2023-05-22T06:29:37.733Z,99.90
2023-05-22T06:32:07.044Z,99.90
2023-05-22T06:34:37.745Z,99.90
2023-05-22T06:37:06.928Z,99.90
2023-05-22T06:39:42.944Z,99.90
2023-05-22T06:42:44.990Z,99.90
2023-05-22T06:45:32.394Z,99.90
2023-05-22T06:48:26.750Z,99.90
2023-05-22T06:51:11.872Z,99.90
2023-05-22T06:53:42.590Z,99.90
2023-05-22T06:56:22.882Z,99.90
2023-05-22T06:58:58.957Z,99.90
2023-05-22T07:01:53.135Z,99.90
2023-05-22T07:04:39.236Z,99.90
2023-05-22T07:07:11.753Z,99.90
2023-05-22T07:09:41.003Z,99.90
2023-05-22T07:12:10.331Z,99.90
2023-05-22T07:14:39.034Z,99.90
2023-05-22T07:17:08.276Z,99.90
2023-05-22T07:19:42.452Z,99.90
2023-05-22T07:22:11.472Z,99.90
2023-05-22T07:24:41.385Z,99.90
2023-05-22T07:27:11.825Z,99.90
2023-05-22T07:29:41.402Z,99.90
2023-05-22T07:32:11.100Z,99.90
2023-05-22T07:34:40.517Z,99.90
2023-05-22T07:37:13.357Z,99.90
2023-05-22T07:39:43.258Z,99.90
2023-05-22T07:42:15.155Z,99.90
2023-05-22T07:44:50.431Z,99.90
2023-05-22T07:47:21.204Z,99.90
2023-05-22T07:49:51.260Z,99.90
2023-05-22T07:52:22.176Z,99.90
2023-05-22T07:54:52.345Z,99.90
2023-05-22T07:57:23.321Z,99.90
2023-05-22T07:59:54.460Z,99.90
2023-05-22T08:02:23.347Z,99.90
2023-05-22T08:04:51.938Z,99.90
2023-05-22T08:07:20.796Z,99.90
2023-05-22T08:09:49.277Z,99.90
2023-05-22T08:12:18.008Z,99.90
2023-05-22T08:14:46.530Z,99.90
2023-05-22T08:17:15.729Z,99.90
2023-05-22T08:19:44.313Z,99.90
2023-05-22T08:22:13.151Z,99.90
2023-05-22T08:24:41.747Z,99.90
2023-05-22T08:27:11.487Z,99.90
2023-05-22T08:29:39.950Z,99.90
2023-05-22T08:32:08.965Z,99.90
2023-05-22T08:34:37.401Z,99.90
2023-05-22T08:37:06.778Z,99.90
2023-05-22T08:39:35.333Z,99.90
2023-05-22T08:42:05.064Z,99.90
2023-05-22T08:44:33.529Z,99.90
2023-05-22T08:47:04.733Z,99.90
2023-05-22T08:49:33.301Z,99.90
2023-05-22T08:52:27.237Z,99.90
2023-05-22T08:54:56.260Z,99.90
2023-05-22T08:57:25.132Z,99.90
2023-05-22T08:59:53.708Z,99.90
2023-05-22T09:02:22.466Z,99.90
2023-05-22T09:04:51.464Z,99.90
2023-05-22T09:07:22.681Z,99.90
2023-05-22T09:09:51.207Z,99.90
2023-05-22T09:12:20.000Z,99.90
2023-05-22T09:14:48.510Z,99.90
2023-05-22T09:17:17.703Z,99.90
2023-05-22T09:19:46.527Z,99.90
2023-05-22T09:22:15.334Z,99.90
2023-05-22T09:24:45.180Z,99.90
2023-05-22T09:27:13.965Z,99.90
2023-05-22T09:29:53.929Z,99.90
2023-05-22T09:32:22.869Z,99.90
2023-05-22T09:34:51.642Z,99.90
2023-05-22T09:37:20.620Z,99.90
2023-05-22T09:39:51.780Z,99.90
2023-05-22T09:42:20.889Z,99.90
2023-05-22T09:44:50.031Z,99.90
2023-05-22T09:47:19.121Z,99.90
2023-05-22T09:49:47.969Z,99.90
2023-05-22T09:52:16.817Z,99.90
2023-05-22T09:54:56.054Z,99.90
2023-05-22T09:57:26.576Z,99.90
2023-05-22T09:59:58.544Z,99.90
2023-05-22T10:02:29.108Z,99.90
2023-05-22T10:04:57.786Z,99.90
2023-05-22T10:07:34.898Z,99.90
2023-05-22T10:10:09.346Z,99.90
2023-05-22T10:17:46.777Z,99.90
2023-05-22T10:20:16.587Z,99.90
2023-05-22T10:22:45.330Z,99.90
2023-05-22T10:25:13.755Z,99.90
2023-05-22T10:27:42.577Z,99.90
2023-05-22T10:30:32.319Z,99.90
2023-05-22T10:33:31.872Z,99.90
2023-05-22T10:36:24.832Z,99.90
2023-05-22T10:38:56.912Z,99.90
2023-05-22T10:41:26.065Z,99.90
2023-05-22T10:43:56.898Z,99.90
2023-05-22T10:46:25.755Z,99.90
2023-05-22T10:48:55.615Z,99.90
2023-05-22T10:51:24.255Z,99.90
2023-05-22T10:54:05.576Z,99.90
2023-05-22T10:56:35.658Z,99.90
2023-05-22T10:59:08.602Z,99.90
2023-05-22T11:01:38.695Z,99.90
2023-05-22T11:04:22.768Z,99.90
2023-05-22T11:07:08.995Z,99.90
2023-05-22T11:09:47.782Z,99.90
2023-05-22T11:12:27.344Z,99.90
2023-05-22T11:15:10.445Z,99.90
2023-05-22T11:17:45.507Z,99.90
2023-05-22T11:20:24.611Z,99.90
2023-05-22T11:23:05.906Z,99.90
2023-05-22T11:25:38.389Z,99.90
2023-05-22T11:28:07.296Z,99.90
2023-05-22T11:30:36.130Z,99.90
2023-05-22T11:33:06.791Z,99.90
2023-05-22T11:35:35.609Z,99.90
2023-05-22T11:38:07.373Z,99.90
2023-05-22T11:40:36.260Z,99.90
2023-05-22T11:43:04.967Z,99.90
2023-05-22T11:45:39.798Z,99.90
2023-05-22T11:48:09.250Z,99.90
2023-05-22T11:50:42.164Z,99.90
2023-05-22T11:53:11.584Z,99.90
2023-05-22T11:55:41.640Z,99.90
2023-05-22T11:58:09.925Z,99.90
2023-05-22T12:00:38.863Z,99.90
2023-05-22T12:03:07.588Z,99.90
2023-05-22T12:05:36.632Z,99.90
2023-05-22T12:08:05.001Z,99.90
2023-05-22T12:10:33.762Z,99.90
2023-05-22T12:13:02.241Z,99.90
2023-05-22T12:15:31.156Z,99.90
2023-05-22T12:17:59.488Z,99.90
2023-05-22T12:20:31.476Z,99.90
2023-05-22T12:23:00.068Z,99.90
2023-05-22T12:25:37.093Z,99.90
2023-05-22T12:28:07.531Z,99.90
2023-05-22T12:30:42.533Z,99.90
2023-05-22T12:33:15.313Z,99.90
2023-05-22T12:35:44.277Z,99.90
2023-05-22T12:38:13.733Z,99.90
2023-05-22T12:40:45.715Z,99.90
2023-05-22T12:43:14.224Z,99.90
2023-05-22T12:45:42.894Z,99.90
2023-05-22T12:48:12.176Z,99.90
2023-05-22T12:50:41.442Z,99.90
2023-05-22T12:53:10.029Z,99.90
2023-05-22T12:55:39.610Z,99.90
2023-05-22T12:58:08.307Z,99.90
2023-05-22T13:00:37.215Z,99.90
2023-05-22T13:03:06.183Z,99.90
2023-05-22T13:05:34.986Z,99.90
2023-05-22T13:08:03.505Z,99.90
2023-05-22T13:10:32.280Z,99.90
2023-05-22T13:13:00.649Z,99.90
2023-05-22T13:15:32.704Z,99.90
2023-05-22T13:18:01.094Z,99.90
2023-05-22T13:20:30.030Z,99.90
2023-05-22T13:22:58.390Z,99.70
2023-05-22T13:25:27.129Z,99.20
2023-05-22T13:27:55.767Z,99.30
2023-05-22T13:30:24.648Z,98.90
2023-05-22T13:32:53.339Z,98.30
2023-05-22T13:35:22.253Z,97.90
2023-05-22T13:37:50.850Z,97.30
2023-05-22T13:40:20.279Z,97.30
2023-05-22T13:42:48.701Z,97.60
2023-05-22T13:45:17.362Z,97.60
2023-05-22T13:47:45.713Z,96.70
2023-05-22T13:50:14.561Z,96.00
2023-05-22T13:52:43.004Z,96.20
2023-05-22T13:55:12.086Z,95.80
2023-05-22T13:57:40.800Z,95.30
2023-05-22T14:00:10.382Z,95.10
2023-05-22T14:02:38.966Z,95.50
2023-05-22T14:05:08.808Z,96.00
2023-05-22T14:07:37.184Z,96.20
2023-05-22T14:10:06.950Z,95.90
2023-05-22T14:12:35.402Z,95.80
2023-05-22T14:15:04.323Z,96.20
2023-05-22T14:17:32.670Z,96.70
2023-05-22T14:20:01.683Z,97.50
2023-05-22T14:22:31.504Z,98.70
2023-05-22T14:25:03.630Z,99.20
2023-05-22T14:27:32.117Z,99.60
2023-05-22T14:30:00.952Z,99.90
2023-05-22T14:32:29.355Z,99.90
2023-05-22T14:34:58.131Z,99.90
2023-05-22T14:37:26.472Z,99.90
2023-05-22T14:39:55.169Z,99.90
2023-05-22T14:42:23.565Z,99.90
2023-05-22T14:44:52.445Z,99.90
2023-05-22T14:47:20.924Z,99.90
2023-05-22T14:49:49.631Z,99.90
2023-05-22T14:52:17.943Z,99.90
2023-05-22T14:54:46.774Z,99.90
2023-05-22T14:57:15.219Z,99.90
2023-05-22T14:59:43.911Z,99.90
2023-05-22T15:02:12.328Z,99.90
2023-05-22T15:04:41.187Z,99.90
2023-05-22T15:07:09.563Z,99.90
2023-05-22T15:09:38.287Z,99.90
2023-05-22T15:12:07.167Z,99.90
2023-05-22T15:14:35.980Z,99.90
2023-05-22T15:17:04.655Z,99.90
2023-05-22T15:19:33.512Z,99.90
2023-05-22T15:22:15.719Z,99.90
2023-05-22T15:24:48.438Z,99.90
2023-05-22T15:27:17.535Z,99.90
2023-05-22T15:29:46.317Z,99.90
2023-05-22T15:32:14.740Z,99.90
2023-05-22T15:34:43.537Z,99.90
2023-05-22T15:37:11.944Z,99.90
2023-05-22T15:39:40.774Z,99.90
2023-05-22T15:42:09.317Z,99.90
2023-05-22T15:44:38.360Z,99.90
2023-05-22T15:47:06.917Z,99.90
2023-05-22T15:49:35.702Z,99.90
2023-05-22T15:52:04.092Z,99.90
2023-05-22T15:54:32.935Z,99.90
2023-05-22T15:57:01.388Z,99.90
2023-05-22T15:59:30.286Z,99.90
2023-05-22T16:01:58.797Z,99.90
2023-05-22T16:04:27.572Z,99.90
2023-05-22T16:06:56.101Z,99.90
2023-05-22T16:09:24.867Z,99.90
2023-05-22T16:11:53.341Z,99.90
2023-05-22T16:14:22.230Z,99.90
2023-05-22T16:16:51.015Z,99.90
2023-05-22T16:19:19.818Z,99.90
2023-05-22T16:21:48.411Z,99.90
2023-05-22T16:24:17.224Z,99.90
2023-05-22T16:26:45.943Z,99.90
2023-05-22T16:29:15.153Z,99.90
2023-05-22T16:31:43.662Z,99.90
2023-05-22T16:34:12.582Z,99.90
2023-05-22T16:36:41.142Z,99.90
2023-05-22T16:39:10.048Z,99.90
2023-05-22T16:41:38.530Z,99.90
2023-05-22T16:44:07.338Z,99.90
2023-05-22T16:46:35.740Z,99.90
2023-05-22T16:49:04.620Z,99.90
2023-05-22T16:51:33.144Z,99.90
2023-05-22T16:54:01.996Z,99.90
2023-05-22T16:56:34.216Z,99.90
2023-05-22T16:59:03.836Z,99.90
2023-05-22T17:01:32.418Z,99.90
2023-05-22T17:04:01.266Z,99.90
2023-05-22T17:06:30.261Z,99.90
2023-05-22T17:08:59.051Z,99.90
2023-05-22T17:11:27.775Z,99.90
2023-05-22T17:13:56.676Z,99.90
2023-05-22T17:16:25.206Z,99.90
2023-05-22T17:18:55.092Z,99.90
2023-05-22T17:21:24.449Z,99.90
2023-05-22T17:23:53.246Z,99.90
2023-05-22T17:26:21.724Z,99.90
2023-05-22T17:28:50.778Z,99.90
2023-05-22T17:31:19.262Z,99.90
2023-05-22T17:33:48.206Z,99.90
2023-05-22T17:36:16.863Z,99.90
2023-05-22T17:38:45.818Z,99.90
2023-05-22T17:41:14.467Z,99.90
2023-05-22T17:43:43.406Z,99.90
2023-05-22T17:46:12.140Z,99.90
2023-05-22T17:48:41.286Z,99.90
2023-05-22T17:51:10.543Z,99.90
2023-05-22T17:53:39.479Z,99.90
2023-05-22T17:56:08.097Z,99.90
2023-05-22T17:58:36.824Z,99.90
2023-05-22T18:01:05.313Z,99.90
2023-05-22T18:03:34.391Z,99.90
2023-05-22T18:06:02.968Z,99.90
2023-05-22T18:08:31.726Z,99.90
2023-05-22T18:11:00.685Z,99.90
2023-05-22T18:13:29.622Z,99.90
2023-05-22T18:15:59.335Z,99.90
2023-05-22T18:18:28.206Z,99.90
2023-05-22T18:20:58.187Z,99.90
2023-05-22T18:23:27.128Z,99.90
2023-05-22T18:25:55.627Z,99.90
2023-05-22T18:28:26.986Z,99.90
2023-05-22T18:30:55.948Z,99.90
2023-05-22T18:33:25.104Z,99.90
2023-05-22T18:35:53.762Z,99.90
2023-05-22T18:38:22.577Z,99.90
2023-05-22T18:40:52.567Z,99.90
2023-05-22T18:43:27.869Z,99.90
2023-05-22T18:45:57.937Z,99.90
2023-05-22T18:48:28.553Z,99.90
2023-05-22T18:50:58.056Z,99.90
2023-05-22T18:53:27.441Z,99.90
2023-05-22T18:55:56.005Z,99.90
2023-05-22T18:58:24.923Z,99.90
2023-05-22T19:00:55.889Z,99.90
2023-05-22T19:03:24.960Z,99.90
2023-05-22T19:05:54.198Z,99.90
2023-05-22T19:08:25.516Z,99.90
2023-05-22T19:10:57.754Z,99.90
2023-05-22T19:13:27.676Z,99.90
2023-05-22T19:15:57.482Z,99.90
2023-05-22T19:18:27.633Z,99.90
2023-05-22T19:20:56.414Z,99.90
2023-05-22T19:23:26.032Z,99.90
2023-05-22T19:25:57.282Z,99.90
2023-05-22T19:28:26.367Z,99.90
2023-05-22T19:30:57.904Z,99.90
2023-05-22T19:33:28.223Z,99.90
2023-05-22T19:35:58.086Z,99.90
2023-05-22T19:38:27.020Z,99.90
2023-05-22T19:40:55.599Z,99.90
2023-05-22T19:43:24.965Z,99.90
2023-05-22T19:45:54.511Z,99.90
2023-05-22T19:48:23.528Z,99.90
2023-05-22T19:50:52.476Z,99.90
2023-05-22T19:53:21.542Z,99.90
2023-05-22T19:55:50.197Z,99.90
2023-05-22T19:58:20.017Z,99.90
2023-05-22T20:00:48.934Z,99.90
2023-05-22T20:03:21.038Z,99.90
2023-05-22T20:05:53.450Z,99.90
2023-05-22T20:08:23.549Z,99.90
2023-05-22T20:10:52.431Z,99.90
2023-05-22T20:13:21.533Z,99.90
2023-05-22T20:15:53.527Z,99.90
2023-05-22T20:18:23.225Z,99.90
2023-05-22T20:20:52.071Z,99.90
2023-05-22T20:23:21.450Z,99.90
2023-05-22T20:25:50.496Z,99.90
2023-05-22T20:28:22.069Z,99.90
2023-05-22T20:30:51.667Z,99.90
2023-05-22T20:33:20.661Z,99.90
2023-05-22T20:35:52.868Z,99.90
2023-05-22T20:38:22.688Z,99.90
2023-05-22T20:40:52.333Z,99.90
2023-05-22T20:43:21.420Z,99.90
2023-05-22T20:45:50.943Z,99.90
2023-05-22T20:48:19.839Z,99.90
2023-05-22T20:50:50.715Z,99.90
2023-05-22T20:53:19.837Z,99.90
2023-05-22T20:55:48.504Z,99.90
2023-05-22T20:58:17.426Z,99.90
2023-05-22T21:00:49.871Z,99.90
2023-05-22T21:03:19.005Z,99.90
2023-05-22T21:05:47.409Z,99.90
2023-05-22T21:08:16.133Z,99.90
2023-05-22T21:10:44.772Z,99.90
2023-05-22T21:13:13.563Z,99.90
2023-05-22T21:15:42.674Z,99.90
2023-05-22T21:18:12.328Z,99.90
2023-05-22T21:20:41.222Z,99.90
2023-05-22T21:23:11.592Z,99.90
2023-05-22T21:25:40.107Z,99.90
2023-05-22T21:28:08.974Z,99.90
2023-05-22T21:30:37.689Z,99.90
2023-05-22T21:33:06.695Z,99.90
2023-05-22T21:35:35.556Z,99.90
2023-05-22T21:38:04.596Z,99.90
2023-05-22T21:40:33.226Z,99.90
2023-05-22T21:43:02.426Z,99.90
2023-05-22T21:45:31.363Z,99.90
2023-05-22T21:48:00.618Z,99.90
2023-05-22T21:50:30.422Z,99.90
2023-05-22T21:52:59.288Z,99.90
2023-05-22T21:55:27.830Z,99.90
2023-05-22T21:57:56.889Z,99.90
2023-05-22T22:00:25.372Z,99.90
2023-05-22T22:02:57.633Z,99.90
2023-05-22T22:05:27.892Z,99.90
2023-05-22T22:07:56.836Z,99.90
2023-05-22T22:10:25.373Z,99.90
2023-05-22T22:12:54.217Z,99.90
2023-05-22T22:15:22.997Z,99.90
2023-05-22T22:17:52.864Z,99.90
2023-05-22T22:20:33.700Z,99.90
2023-05-22T22:23:12.342Z,99.90
2023-05-22T22:25:40.945Z,99.90
2023-05-22T22:28:09.826Z,99.90
2023-05-22T22:30:38.600Z,99.90
2023-05-22T22:35:36.482Z,99.90
2023-05-22T22:38:05.706Z,99.90
2023-05-22T22:40:34.303Z,99.90
2023-05-22T22:43:03.957Z,99.90
2023-05-22T22:45:32.470Z,99.90
2023-05-22T22:48:01.271Z,99.90
2023-05-22T22:50:30.049Z,99.90
2023-05-22T22:52:59.375Z,99.90
2023-05-22T22:55:28.772Z,99.90
2023-05-22T22:57:57.879Z,99.90
2023-05-22T23:00:26.446Z,99.90
2023-05-22T23:02:55.396Z,99.90
2023-05-22T23:05:23.933Z,99.90
2023-05-22T23:07:52.888Z,99.90
2023-05-22T23:10:22.351Z,99.90
2023-05-22T23:12:51.423Z,99.90
2023-05-22T23:15:20.258Z,99.90
2023-05-22T23:17:51.020Z,99.90
2023-05-22T23:20:20.606Z,99.90
2023-05-22T23:22:49.389Z,99.90
2023-05-22T23:25:17.871Z,99.90
2023-05-22T23:27:46.816Z,99.90
2023-05-22T23:30:15.662Z,99.90
2023-05-22T23:32:44.510Z,99.90
2023-05-22T23:35:13.133Z,99.90
2023-05-22T23:37:41.965Z,99.90
2023-05-22T23:40:10.955Z,99.90
2023-05-22T23:42:40.055Z,99.90
2023-05-22T23:45:08.818Z,99.90
2023-05-22T23:47:37.622Z,99.90
2023-05-22T23:50:07.348Z,99.90
2023-05-22T23:52:36.127Z,99.90
2023-05-22T23:55:05.101Z,99.90
2023-05-22T23:57:33.878Z,99.90
